createdAt,value
2022-12-08T00:01:32.446Z,-6.97
2022-12-08T00:04:01.289Z,-6.64
2022-12-08T00:06:50.203Z,-6.65
2022-12-08T00:09:23.132Z,-6.66
2022-12-08T00:11:53.356Z,-6.68
2022-12-08T00:14:23.548Z,-6.70
2022-12-08T00:16:51.547Z,-6.71
2022-12-08T00:19:19.649Z,-7.08
2022-12-08T00:21:48.944Z,-6.76
2022-12-08T00:24:17.745Z,-6.83
2022-12-08T00:26:45.880Z,-7.08
2022-12-08T00:29:17.497Z,-6.84
2022-12-08T00:31:45.814Z,-6.93
2022-12-08T00:34:14.040Z,-6.78
2022-12-08T00:36:42.153Z,-6.84
2022-12-08T00:39:12.125Z,-6.79
2022-12-08T00:41:57.669Z,-6.81
2022-12-08T00:44:25.837Z,-6.81
2022-12-08T00:46:53.674Z,-6.81
2022-12-08T00:49:21.934Z,-6.81
2022-12-08T00:51:50.163Z,-6.95
2022-12-08T00:54:20.231Z,-6.82
2022-12-08T00:56:48.196Z,-6.84
2022-12-08T00:59:16.352Z,-6.83
2022-12-08T01:01:45.986Z,-6.84
2022-12-08T01:04:16.238Z,-6.86
2022-12-08T01:06:45.360Z,-6.85
2022-12-08T01:09:14.589Z,-6.89
2022-12-08T01:11:44.611Z,-6.89
2022-12-08T01:14:13.253Z,-6.97
2022-12-08T01:16:42.200Z,-6.91
2022-12-08T01:19:11.835Z,-6.92
2022-12-08T01:21:40.445Z,-6.95
2022-12-08T01:24:11.525Z,-7.02
2022-12-08T01:26:39.711Z,-6.96
2022-12-08T01:29:09.258Z,-6.95
2022-12-08T01:31:37.300Z,-7.08
2022-12-08T01:34:05.304Z,-7.00
2022-12-08T01:36:37.097Z,-7.23
2022-12-08T01:39:07.216Z,-7.14
2022-12-08T01:41:37.605Z,-7.06
2022-12-08T01:44:43.982Z,-7.08
2022-12-08T01:47:13.531Z,-7.09
2022-12-08T01:49:41.321Z,-7.34
2022-12-08T01:52:17.843Z,-7.11
2022-12-08T01:54:49.883Z,-7.13
2022-12-08T01:57:21.512Z,-7.16
2022-12-08T01:59:53.100Z,-7.16
2022-12-08T02:02:22.787Z,-7.16
2022-12-08T02:04:50.827Z,-7.19
2022-12-08T02:07:19.692Z,-7.21
2022-12-08T02:09:47.912Z,-7.29
2022-12-08T02:12:16.092Z,-7.23
2022-12-08T02:14:44.244Z,-7.24
2022-12-08T02:17:30.540Z,-7.25
2022-12-08T02:20:35.561Z,-7.32
2022-12-08T02:23:12.467Z,-7.35
2022-12-08T02:25:52.161Z,-7.30
2022-12-08T02:28:43.690Z,-7.31
2022-12-08T02:31:28.114Z,-7.33
2022-12-08T02:34:18.680Z,-7.35
2022-12-08T02:36:55.387Z,-7.38
2022-12-08T02:39:32.313Z,-7.38
2022-12-08T02:42:09.588Z,-7.40
2022-12-08T02:44:43.145Z,-7.42
2022-12-08T02:47:14.010Z,-7.69
2022-12-08T02:49:43.389Z,-7.59
2022-12-08T02:52:40.235Z,-7.45
2022-12-08T02:55:14.581Z,-7.52
2022-12-08T02:57:52.970Z,-8.41
2022-12-08T03:00:23.479Z,-7.55
2022-12-08T03:03:04.879Z,-7.49
2022-12-08T03:05:52.328Z,-7.49
2022-12-08T03:08:25.790Z,-7.48
2022-12-08T03:11:01.968Z,-7.48
2022-12-08T03:13:35.096Z,-7.48
2022-12-08T03:16:08.645Z,-7.49
2022-12-08T03:18:43.053Z,-7.51
2022-12-08T03:21:17.596Z,-7.54
2022-12-08T03:23:47.616Z,-7.77
2022-12-08T03:26:21.817Z,-7.59
2022-12-08T03:28:49.829Z,-7.61
2022-12-08T03:31:19.630Z,-7.61
2022-12-08T03:33:53.305Z,-7.70
2022-12-08T03:36:23.632Z,-7.63
2022-12-08T03:38:53.846Z,-7.67
2022-12-08T03:41:23.237Z,-7.69
2022-12-08T03:43:52.926Z,-7.71
2022-12-08T03:48:49.447Z,-7.79
2022-12-08T03:51:17.551Z,-7.73
2022-12-08T03:53:47.303Z,-7.73
2022-12-08T03:56:20.972Z,-7.74
2022-12-08T03:58:48.764Z,-7.75
2022-12-08T04:01:16.673Z,-7.76
2022-12-08T04:03:44.709Z,-7.76
2022-12-08T04:06:12.660Z,-7.75
2022-12-08T04:08:41.195Z,-8.05
2022-12-08T04:11:10.693Z,-7.73
2022-12-08T04:13:39.984Z,-7.72
2022-12-08T04:16:08.330Z,-7.94
2022-12-08T04:18:37.007Z,-8.16
2022-12-08T04:21:05.009Z,-7.79
2022-12-08T04:23:32.899Z,-7.85
2022-12-08T04:26:00.871Z,-7.74
2022-12-08T04:28:30.496Z,-7.92
2022-12-08T04:30:58.653Z,-7.74
2022-12-08T04:33:26.724Z,-7.73
2022-12-08T04:35:54.545Z,-7.85
2022-12-08T04:38:22.795Z,-8.04
2022-12-08T04:40:50.770Z,-7.72
2022-12-08T04:43:18.729Z,-7.72
2022-12-08T04:45:48.369Z,-7.73
2022-12-08T04:48:16.695Z,-7.73
2022-12-08T04:50:46.002Z,-7.73
2022-12-08T04:53:14.675Z,-7.74
2022-12-08T04:55:44.973Z,-7.76
2022-12-08T04:58:14.807Z,-7.72
2022-12-08T05:00:43.540Z,-7.72
2022-12-08T05:03:13.110Z,-7.73
2022-12-08T05:05:41.978Z,-7.73
2022-12-08T05:08:10.551Z,-7.83
2022-12-08T05:10:38.875Z,-7.75
2022-12-08T05:13:06.673Z,-7.77
2022-12-08T05:15:34.616Z,-7.74
2022-12-08T05:18:02.542Z,-7.74
2022-12-08T05:20:31.729Z,-7.78
2022-12-08T05:22:59.688Z,-7.86
2022-12-08T05:25:27.802Z,-7.96
2022-12-08T05:28:17.714Z,-7.77
2022-12-08T05:30:43.629Z,-7.77
2022-12-08T05:33:11.419Z,-7.77
2022-12-08T05:35:40.828Z,-7.78
2022-12-08T05:38:08.916Z,-7.78
2022-12-08T05:40:38.633Z,-7.79
2022-12-08T05:43:06.716Z,-7.78
2022-12-08T05:45:35.042Z,-7.77
2022-12-08T05:48:03.017Z,-7.77
2022-12-08T05:50:30.903Z,-7.81
2022-12-08T05:53:00.306Z,-7.79
2022-12-08T05:55:28.155Z,-7.81
2022-12-08T05:57:55.958Z,-7.84
2022-12-08T06:00:24.105Z,-7.86
2022-12-08T06:02:52.029Z,-7.89
2022-12-08T06:05:20.154Z,-7.89
2022-12-08T06:07:48.265Z,-7.90
2022-12-08T06:10:17.507Z,-8.02
2022-12-08T06:12:45.375Z,-7.91
2022-12-08T06:15:13.400Z,-7.92
2022-12-08T06:17:41.206Z,-7.92
2022-12-08T06:20:09.903Z,-8.30
2022-12-08T06:22:38.459Z,-7.92
2022-12-08T06:25:10.094Z,-7.91
2022-12-08T06:27:40.035Z,-7.90
2022-12-08T06:30:09.114Z,-7.95
2022-12-08T06:32:37.517Z,-7.90
2022-12-08T06:35:06.289Z,-7.87
2022-12-08T06:37:34.136Z,-8.22
2022-12-08T06:40:02.248Z,-7.95
2022-12-08T06:42:46.769Z,-7.86
2022-12-08T06:45:18.102Z,-7.87
2022-12-08T06:47:46.481Z,-7.87
2022-12-08T06:50:15.338Z,-7.87
2022-12-08T06:52:54.344Z,-7.93
2022-12-08T06:55:59.462Z,-7.88
2022-12-08T06:58:17.018Z,-7.87
2022-12-08T07:00:46.797Z,-8.22
2022-12-08T07:03:14.866Z,-7.88
2022-12-08T07:05:42.714Z,-7.96
2022-12-08T07:08:13.626Z,-7.90
2022-12-08T07:10:41.952Z,-7.91
2022-12-08T07:13:09.797Z,-7.93
2022-12-08T07:15:38.022Z,-7.96
2022-12-08T07:18:07.271Z,-7.94
2022-12-08T07:20:35.107Z,-7.95
2022-12-08T07:23:03.234Z,-7.94
2022-12-08T07:25:31.072Z,-7.95
2022-12-08T07:27:58.994Z,-7.97
2022-12-08T07:30:27.087Z,-7.96
2022-12-08T07:32:57.288Z,-8.63
2022-12-08T07:35:26.764Z,-7.94
2022-12-08T07:37:54.745Z,-7.93
2022-12-08T07:40:22.585Z,-7.88
2022-12-08T07:42:50.375Z,-7.84
2022-12-08T07:45:18.681Z,-7.92
2022-12-08T07:47:48.035Z,-7.80
2022-12-08T07:50:15.975Z,-7.79
2022-12-08T07:52:45.431Z,-7.77
2022-12-08T07:55:13.228Z,-7.76
2022-12-08T07:57:41.032Z,-7.73
2022-12-08T08:00:10.122Z,-7.72
2022-12-08T08:02:38.114Z,-7.69
2022-12-08T08:05:07.140Z,-7.68
2022-12-08T08:07:37.007Z,-7.67
2022-12-08T08:10:08.239Z,-7.69
2022-12-08T08:12:36.707Z,-7.64
2022-12-08T08:15:07.568Z,-7.80
2022-12-08T08:17:36.696Z,-7.61
2022-12-08T08:20:07.220Z,-7.73
2022-12-08T08:22:36.333Z,-7.56
2022-12-08T08:25:04.572Z,-7.54
2022-12-08T08:27:33.932Z,-7.53
2022-12-08T08:30:02.625Z,-7.56
2022-12-08T08:32:35.604Z,-7.48
2022-12-08T08:35:03.776Z,-7.46
2022-12-08T08:37:31.903Z,-7.41
2022-12-08T08:39:59.882Z,-7.45
2022-12-08T08:42:27.856Z,-7.31
2022-12-08T08:44:57.100Z,-7.27
2022-12-08T08:47:25.063Z,-7.25
2022-12-08T08:49:53.296Z,-7.29
2022-12-08T08:52:21.186Z,-7.17
2022-12-08T08:54:49.013Z,-7.10
2022-12-08T08:57:23.670Z,-7.06
2022-12-08T08:59:53.408Z,-7.02
2022-12-08T09:02:23.348Z,-7.10
2022-12-08T09:04:51.841Z,-6.93
2022-12-08T09:07:19.831Z,-6.76
2022-12-08T09:09:47.784Z,-6.63
2022-12-08T09:12:15.626Z,-6.52
2022-12-08T09:14:43.572Z,-6.58
2022-12-08T09:17:11.514Z,-6.13
2022-12-08T09:19:40.715Z,-5.98
2022-12-08T09:22:11.294Z,-6.44
2022-12-08T09:24:39.233Z,-5.66
2022-12-08T09:27:07.040Z,-5.51
2022-12-08T09:29:36.341Z,-5.40
2022-12-08T09:32:04.736Z,-5.24
2022-12-08T09:34:32.717Z,-4.93
2022-12-08T09:37:02.104Z,-4.84
2022-12-08T09:39:29.995Z,-4.61
2022-12-08T09:42:00.806Z,-4.41
2022-12-08T09:44:57.481Z,-4.20
2022-12-08T09:47:35.287Z,-4.18
2022-12-08T09:50:08.883Z,-4.27
2022-12-08T09:52:42.625Z,-4.44
2022-12-08T09:55:18.588Z,-4.55
2022-12-08T09:58:01.841Z,-4.63
2022-12-08T10:00:30.116Z,-4.57
2022-12-08T10:02:58.121Z,-4.54
2022-12-08T10:05:28.573Z,-4.61
2022-12-08T10:08:09.617Z,-4.77
2022-12-08T10:10:42.932Z,-4.69
2022-12-08T10:13:20.515Z,-4.91
2022-12-08T10:15:54.545Z,-5.05
2022-12-08T10:18:28.314Z,-5.19
2022-12-08T10:21:01.192Z,-5.31
2022-12-08T10:23:36.027Z,-5.75
2022-12-08T10:26:06.646Z,-5.60
2022-12-08T10:28:39.957Z,-6.03
2022-12-08T10:31:17.436Z,-5.64
2022-12-08T10:33:47.491Z,-5.65
2022-12-08T10:36:15.600Z,-5.69
2022-12-08T10:38:44.855Z,-5.73
2022-12-08T10:41:18.089Z,-5.73
2022-12-08T10:43:49.538Z,-5.83
2022-12-08T10:46:19.982Z,-5.75
2022-12-08T10:48:54.125Z,-5.67
2022-12-08T10:51:29.634Z,-5.64
2022-12-08T10:53:59.447Z,-5.97
2022-12-08T10:56:29.463Z,-5.90
2022-12-08T10:59:14.185Z,-5.57
2022-12-08T11:01:43.977Z,-5.58
2022-12-08T11:04:16.863Z,-5.50
2022-12-08T11:06:45.775Z,-5.67
2022-12-08T11:09:46.877Z,-5.45
2022-12-08T11:12:16.062Z,-5.44
2022-12-08T11:14:56.166Z,-5.42
2022-12-08T11:17:27.700Z,-5.41
2022-12-08T11:20:00.465Z,-5.48
2022-12-08T11:22:32.202Z,-5.51
2022-12-08T11:25:04.123Z,-5.35
2022-12-08T11:27:34.710Z,-5.63
2022-12-08T11:30:04.665Z,-5.41
2022-12-08T11:32:35.801Z,-5.29
2022-12-08T11:35:06.955Z,-5.27
2022-12-08T11:37:40.192Z,-5.28
2022-12-08T11:40:17.649Z,-5.35
2022-12-08T11:42:55.976Z,-5.36
2022-12-08T11:45:28.429Z,-5.41
2022-12-08T11:48:05.091Z,-5.40
2022-12-08T11:50:42.288Z,-5.35
2022-12-08T11:53:18.095Z,-5.34
2022-12-08T11:55:53.732Z,-5.31
2022-12-08T11:58:28.443Z,-5.28
2022-12-08T12:00:56.628Z,-5.20
2022-12-08T12:03:30.572Z,-5.06
2022-12-08T12:09:17.682Z,-4.63
2022-12-08T12:12:16.034Z,-4.49
2022-12-08T12:15:20.309Z,-4.53
2022-12-08T12:17:52.260Z,-4.45
